createdAt,value
2022-08-03T00:00:58.704Z,81.81
2022-08-03T00:01:58.721Z,81.51
2022-08-03T00:02:58.776Z,81.57
2022-08-03T00:03:58.740Z,81.51
2022-08-03T00:04:58.710Z,81.10
2022-08-03T00:06:04.452Z,81.61
2022-08-03T00:06:59.719Z,81.51
2022-08-03T00:07:58.653Z,81.71
2022-08-03T00:08:58.710Z,81.10
2022-08-03T00:09:58.950Z,81.30
2022-08-03T00:10:58.677Z,82.42
2022-08-03T00:11:58.647Z,83.66
2022-08-03T00:12:58.711Z,84.11
2022-08-03T00:13:58.622Z,85.05
2022-08-03T00:14:58.654Z,85.11
2022-08-03T00:15:58.605Z,85.66
2022-08-03T00:16:58.591Z,85.46
2022-08-03T00:17:58.608Z,84.71
2022-08-03T00:18:58.499Z,84.31
2022-08-03T00:19:58.527Z,84.01
2022-08-03T00:20:58.543Z,83.06
2022-08-03T00:21:58.510Z,82.76
2022-08-03T00:22:58.477Z,82.56
2022-08-03T00:23:58.473Z,82.11
2022-08-03T00:24:58.476Z,82.31
2022-08-03T00:25:58.513Z,82.31
2022-08-03T00:26:58.444Z,82.21
2022-08-03T00:27:58.458Z,82.01
2022-08-03T00:28:58.416Z,82.82
2022-08-03T00:30:00.403Z,82.62
2022-08-03T00:30:58.447Z,83.76
2022-08-03T00:31:59.350Z,83.97
2022-08-03T00:32:58.520Z,83.76
2022-08-03T00:33:59.674Z,83.80
2022-08-03T00:34:59.174Z,83.70
2022-08-03T00:35:58.588Z,84.01
2022-08-03T00:36:58.535Z,84.25
2022-08-03T00:37:58.474Z,84.25
2022-08-03T00:38:58.471Z,84.11
2022-08-03T00:39:59.908Z,84.05
2022-08-03T00:40:58.458Z,84.75
2022-08-03T00:41:58.332Z,84.85
2022-08-03T00:42:58.488Z,84.85
2022-08-03T00:43:58.445Z,84.49
2022-08-03T00:44:59.421Z,84.89
2022-08-03T00:45:58.428Z,84.95
2022-08-03T00:46:58.421Z,84.99
2022-08-03T00:47:58.471Z,84.89
2022-08-03T00:48:58.439Z,84.89
2022-08-03T00:49:58.372Z,85.10
2022-08-03T00:50:58.413Z,84.69
2022-08-03T00:51:58.364Z,85.30
2022-08-03T00:52:58.367Z,85.10
2022-08-03T00:53:58.442Z,85.25
2022-08-03T00:54:58.388Z,85.16
2022-08-03T00:55:58.321Z,84.39
2022-08-03T00:56:59.461Z,84.49
2022-08-03T00:57:58.308Z,84.09
2022-08-03T00:58:58.370Z,83.78
2022-08-03T00:59:58.295Z,84.19
2022-08-03T01:00:58.352Z,84.99
2022-08-03T01:01:58.298Z,85.64
2022-08-03T01:02:58.309Z,85.94
2022-08-03T01:03:58.316Z,85.30
2022-08-03T01:04:58.357Z,85.44
2022-08-03T01:05:58.316Z,85.60
2022-08-03T01:06:58.263Z,85.24
2022-08-03T01:07:58.241Z,85.34
2022-08-03T01:08:58.256Z,85.40
2022-08-03T01:09:58.433Z,84.89
2022-08-03T01:10:58.245Z,84.49
2022-08-03T01:12:01.158Z,84.19
2022-08-03T01:12:58.194Z,84.49
2022-08-03T01:14:04.267Z,84.09
2022-08-03T01:14:59.260Z,84.89
2022-08-03T01:15:58.233Z,84.99
2022-08-03T01:16:58.875Z,85.44
2022-08-03T01:17:58.247Z,84.69
2022-08-03T01:18:58.061Z,84.99
2022-08-03T01:19:58.141Z,84.89
2022-08-03T01:20:58.111Z,84.25
2022-08-03T01:21:58.064Z,84.09
2022-08-03T01:22:58.060Z,83.68
2022-08-03T01:23:58.065Z,83.84
2022-08-03T01:24:58.014Z,83.64
2022-08-03T01:25:58.058Z,84.05
2022-08-03T01:26:58.031Z,83.98
2022-08-03T01:27:58.012Z,84.29
2022-08-03T01:28:58.112Z,84.79
2022-08-03T01:29:58.102Z,84.99
2022-08-03T01:30:58.113Z,84.73
2022-08-03T01:32:54.510Z,85.03
2022-08-03T01:33:01.796Z,85.44
2022-08-03T01:33:57.959Z,85.34
2022-08-03T01:34:58.056Z,85.44
2022-08-03T01:35:58.050Z,85.78
2022-08-03T01:36:58.096Z,86.59
2022-08-03T01:37:58.074Z,87.10
2022-08-03T01:38:58.114Z,87.40
2022-08-03T01:39:58.015Z,87.19
2022-08-03T01:40:58.066Z,87.60
2022-08-03T01:41:57.956Z,87.70
2022-08-03T01:42:58.065Z,87.34
2022-08-03T01:44:27.324Z,88.10
2022-08-03T01:44:58.900Z,88.10
2022-08-03T01:45:57.992Z,87.30
2022-08-03T01:46:58.030Z,87.10
2022-08-03T01:47:57.937Z,86.65
2022-08-03T01:48:58.016Z,86.55
2022-08-03T01:49:57.982Z,86.45
2022-08-03T01:50:57.928Z,86.21
2022-08-03T01:52:03.998Z,85.84
2022-08-03T01:52:59.023Z,85.54
2022-08-03T01:53:57.913Z,84.89
2022-08-03T01:54:57.907Z,84.79
2022-08-03T01:55:57.889Z,84.59
2022-08-03T01:56:57.888Z,84.59
2022-08-03T01:58:05.282Z,85.54
2022-08-03T01:58:58.891Z,85.78
2022-08-03T01:59:57.945Z,86.43
2022-08-03T02:00:57.895Z,87.54
2022-08-03T02:02:19.573Z,87.38
2022-08-03T02:02:58.802Z,88.33
2022-08-03T02:04:00.150Z,88.64
2022-08-03T02:04:57.840Z,89.14
2022-08-03T02:06:18.147Z,89.54
2022-08-03T02:07:03.107Z,89.65
2022-08-03T02:07:57.767Z,89.75
2022-08-03T02:08:58.802Z,89.30
2022-08-03T02:09:57.780Z,89.70
2022-08-03T02:10:57.819Z,89.50
2022-08-03T02:11:57.760Z,89.40
2022-08-03T02:12:57.736Z,89.46
2022-08-03T02:13:57.824Z,89.81
2022-08-03T02:14:57.773Z,89.61
2022-08-03T02:15:57.756Z,89.70
2022-08-03T02:16:57.680Z,89.76
2022-08-03T02:17:57.661Z,89.46
2022-08-03T02:18:57.609Z,89.61
2022-08-03T02:19:57.663Z,89.70
2022-08-03T02:20:57.625Z,89.10
2022-08-03T02:22:01.353Z,89.10
2022-08-03T02:22:58.615Z,89.70
2022-08-03T02:23:57.600Z,89.81
2022-08-03T02:24:57.591Z,89.61
2022-08-03T02:25:57.554Z,89.34
2022-08-03T02:26:57.600Z,90.16
2022-08-03T02:27:57.609Z,89.91
2022-08-03T02:28:57.569Z,90.56
2022-08-03T02:29:57.550Z,90.45
2022-08-03T02:30:57.702Z,90.76
2022-08-03T02:31:57.663Z,90.62
2022-08-03T02:32:57.612Z,90.86
2022-08-03T02:33:57.634Z,90.45
2022-08-03T02:34:57.604Z,90.52
2022-08-03T02:35:57.627Z,90.52
2022-08-03T02:36:57.583Z,90.41
2022-08-03T02:37:57.614Z,90.72
2022-08-03T02:38:57.582Z,90.41
2022-08-03T02:39:57.585Z,89.65
2022-08-03T02:40:57.592Z,89.85
2022-08-03T02:41:57.515Z,90.45
2022-08-03T02:42:57.568Z,89.95
2022-08-03T02:44:06.223Z,89.30
2022-08-03T02:44:58.450Z,89.65
2022-08-03T02:45:57.573Z,89.00
2022-08-03T02:46:57.550Z,89.50
2022-08-03T02:47:57.593Z,89.00
2022-08-03T02:48:57.556Z,90.05
2022-08-03T02:49:57.515Z,90.01
2022-08-03T02:50:57.489Z,90.25
2022-08-03T02:51:57.469Z,89.75
2022-08-03T02:52:57.509Z,89.75
2022-08-03T02:53:57.460Z,89.95
2022-08-03T02:54:57.484Z,90.05
2022-08-03T02:55:57.466Z,89.54
2022-08-03T02:56:57.439Z,89.69
2022-08-03T02:57:57.465Z,90.36
2022-08-03T02:58:57.457Z,89.95
2022-08-03T02:59:57.404Z,90.25
2022-08-03T03:00:57.503Z,90.05
2022-08-03T03:01:57.419Z,89.24
2022-08-03T03:02:57.411Z,88.64
2022-08-03T03:03:57.423Z,88.53
2022-08-03T03:05:52.011Z,88.64
2022-08-03T03:05:59.707Z,89.54
2022-08-03T03:06:58.378Z,89.34
2022-08-03T03:07:57.287Z,89.99
2022-08-03T03:08:59.787Z,90.30
2022-08-03T03:09:58.271Z,89.69
2022-08-03T03:10:57.252Z,90.50
2022-08-03T03:11:57.269Z,89.69
2022-08-03T03:12:57.238Z,89.39
2022-08-03T03:13:57.257Z,89.85
2022-08-03T03:14:57.669Z,89.34
2022-08-03T03:15:57.231Z,89.45
2022-08-03T03:16:57.848Z,88.74
2022-08-03T03:17:57.345Z,88.64
2022-08-03T03:18:57.287Z,88.79
2022-08-03T03:19:57.333Z,88.64
2022-08-03T03:20:57.260Z,88.70
2022-08-03T03:21:57.291Z,88.79
2022-08-03T03:22:57.268Z,88.49
2022-08-03T03:23:57.239Z,88.09
2022-08-03T03:24:57.223Z,88.70
2022-08-03T03:25:57.313Z,88.79
2022-08-03T03:26:57.277Z,88.70
2022-08-03T03:27:57.724Z,88.39
2022-08-03T03:28:57.206Z,88.29
2022-08-03T03:29:57.233Z,88.39
2022-08-03T03:30:57.223Z,88.02
2022-08-03T03:31:57.237Z,88.49
2022-08-03T03:32:57.219Z,89.45
2022-08-03T03:33:57.179Z,90.30
2022-08-03T03:34:57.154Z,90.09
2022-08-03T03:35:57.177Z,90.50
2022-08-03T03:36:57.175Z,90.91
2022-08-03T03:37:57.140Z,90.95
2022-08-03T03:38:57.138Z,90.95
2022-08-03T03:39:57.172Z,90.75
2022-08-03T03:40:57.119Z,89.89
2022-08-03T03:41:57.146Z,90.34
2022-08-03T03:42:57.090Z,90.44
2022-08-03T03:43:58.081Z,91.35
2022-08-03T03:44:57.117Z,90.95
2022-08-03T03:45:57.094Z,90.95
2022-08-03T03:46:57.092Z,91.25
2022-08-03T03:47:57.148Z,90.95
2022-08-03T03:48:57.091Z,90.84
2022-08-03T03:49:56.964Z,91.35
2022-08-03T03:50:56.949Z,91.50
2022-08-03T03:51:56.982Z,91.60
2022-08-03T03:52:57.034Z,91.80
2022-08-03T03:53:56.912Z,92.10
2022-08-03T03:55:00.784Z,92.31
2022-08-03T03:56:02.009Z,92.91
2022-08-03T03:56:56.923Z,92.47
2022-08-03T03:57:56.924Z,93.02
2022-08-03T03:58:56.941Z,92.82
2022-08-03T03:59:56.876Z,92.77
2022-08-03T04:00:56.958Z,92.41
2022-08-03T04:01:59.185Z,92.10
2022-08-03T04:02:56.854Z,92.10
2022-08-03T04:03:57.042Z,93.12
2022-08-03T04:04:56.975Z,93.02
2022-08-03T04:05:56.957Z,93.12
2022-08-03T04:06:56.959Z,92.82
2022-08-03T04:07:56.912Z,92.51
2022-08-03T04:08:56.938Z,92.51
2022-08-03T04:09:56.966Z,92.61
2022-08-03T04:10:56.942Z,92.71
2022-08-03T04:11:56.946Z,92.82
2022-08-03T04:12:56.880Z,92.91
2022-08-03T04:13:56.914Z,93.22
2022-08-03T04:14:57.984Z,93.02
2022-08-03T04:15:56.951Z,93.02
2022-08-03T04:16:56.889Z,92.41
2022-08-03T04:17:56.853Z,91.90
2022-08-03T04:18:56.818Z,91.39
2022-08-03T04:19:56.831Z,91.50
2022-08-03T04:20:56.874Z,91.80
2022-08-03T04:21:56.967Z,92.00
2022-08-03T04:22:56.800Z,91.80
2022-08-03T04:23:56.784Z,92.41
2022-08-03T04:24:56.791Z,92.41
2022-08-03T04:25:56.824Z,93.22
2022-08-03T04:26:56.794Z,92.31
2022-08-03T04:28:29.383Z,92.47
2022-08-03T04:28:57.768Z,92.91
2022-08-03T04:29:56.791Z,92.87
2022-08-03T04:30:56.755Z,92.97
2022-08-03T04:31:56.825Z,92.16
2022-08-03T04:32:56.767Z,91.82
2022-08-03T04:33:56.725Z,91.31
2022-08-03T04:34:56.788Z,91.71
2022-08-03T04:36:01.033Z,90.80
2022-08-03T04:36:57.783Z,91.61
2022-08-03T04:37:56.680Z,91.00
2022-08-03T04:38:56.710Z,91.06
2022-08-03T04:39:56.946Z,91.47
2022-08-03T04:40:56.700Z,90.56
2022-08-03T04:42:06.981Z,90.36
2022-08-03T04:42:57.693Z,90.56
2022-08-03T04:43:56.625Z,90.11
2022-08-03T04:45:01.012Z,89.65
2022-08-03T04:45:57.630Z,89.81
2022-08-03T04:46:56.612Z,89.85
2022-08-03T04:47:56.666Z,89.40
2022-08-03T04:48:56.653Z,89.81
2022-08-03T04:49:56.613Z,88.90
2022-08-03T04:50:56.621Z,89.06
2022-08-03T04:51:56.588Z,88.45
2022-08-03T04:52:56.568Z,88.04
2022-08-03T04:53:56.652Z,87.90
2022-08-03T04:54:56.486Z,87.70
2022-08-03T04:55:56.498Z,87.50
2022-08-03T04:56:56.493Z,87.50
2022-08-03T04:57:56.504Z,87.40
2022-08-03T04:58:56.475Z,87.40
2022-08-03T05:00:02.172Z,87.30
2022-08-03T05:00:58.483Z,87.50
2022-08-03T05:01:56.523Z,87.10
2022-08-03T05:02:56.446Z,86.95
2022-08-03T05:03:56.409Z,86.95
2022-08-03T05:04:56.462Z,86.45
2022-08-03T05:06:09.412Z,86.25
2022-08-03T05:06:57.411Z,85.94
2022-08-03T05:07:56.390Z,86.04
2022-08-03T05:08:56.464Z,86.65
2022-08-03T05:10:01.333Z,86.90
2022-08-03T05:10:59.124Z,87.26
2022-08-03T05:11:56.375Z,87.05
2022-08-03T05:12:56.455Z,87.15
2022-08-03T05:13:56.438Z,87.76
2022-08-03T05:14:56.465Z,87.86
2022-08-03T05:15:56.498Z,87.46
2022-08-03T05:16:56.457Z,87.46
2022-08-03T05:17:56.448Z,86.91
2022-08-03T05:18:56.435Z,86.71
2022-08-03T05:19:56.421Z,86.16
2022-08-03T05:20:56.452Z,85.96
2022-08-03T05:21:56.372Z,85.96
2022-08-03T05:22:56.360Z,85.31
2022-08-03T05:23:56.346Z,84.01
2022-08-03T05:24:56.376Z,84.07
2022-08-03T05:25:56.401Z,84.77
2022-08-03T05:26:56.409Z,84.47
2022-08-03T05:27:56.323Z,84.27
2022-08-03T05:28:56.367Z,83.97
2022-08-03T05:29:56.317Z,83.97
2022-08-03T05:30:58.264Z,83.62
2022-08-03T05:31:56.345Z,82.82
2022-08-03T05:32:56.309Z,83.42
2022-08-03T05:33:56.348Z,83.02
2022-08-03T05:34:56.319Z,82.48
2022-08-03T05:36:02.769Z,81.98
2022-08-03T05:36:58.369Z,81.98
2022-08-03T05:37:56.277Z,82.07
2022-08-03T05:39:00.838Z,82.07
2022-08-03T05:39:58.296Z,81.37
2022-08-03T05:40:57.315Z,81.67
2022-08-03T05:41:56.313Z,81.41
2022-08-03T05:42:56.297Z,81.81
2022-08-03T05:43:56.304Z,82.31
2022-08-03T05:44:56.230Z,82.21
2022-08-03T05:46:12.472Z,82.38
2022-08-03T05:46:57.253Z,81.98
2022-08-03T05:47:56.289Z,81.37
2022-08-03T05:48:56.236Z,81.07
2022-08-03T05:49:56.221Z,80.87
2022-08-03T05:50:56.217Z,80.43
2022-08-03T05:52:07.969Z,80.02
2022-08-03T05:52:57.204Z,80.02
2022-08-03T05:53:56.171Z,79.62
2022-08-03T05:54:57.719Z,80.02
2022-08-03T05:55:59.310Z,80.12
2022-08-03T05:56:58.155Z,80.12
2022-08-03T05:57:56.833Z,79.68
2022-08-03T05:58:56.180Z,79.48
2022-08-03T05:59:58.542Z,79.48
2022-08-03T06:00:56.156Z,79.74
2022-08-03T06:01:56.177Z,78.94
2022-08-03T06:02:56.007Z,78.47
2022-08-03T06:03:56.021Z,78.64
2022-08-03T06:04:56.025Z,77.57
2022-08-03T06:06:00.313Z,78.14
2022-08-03T06:06:55.986Z,77.83
2022-08-03T06:07:55.993Z,77.39
2022-08-03T06:08:55.993Z,78.10
2022-08-03T06:10:34.927Z,76.69
2022-08-03T06:10:56.967Z,76.05
2022-08-03T06:11:55.920Z,75.75
2022-08-03T06:12:55.926Z,75.65
2022-08-03T06:13:55.942Z,75.62
2022-08-03T06:14:55.954Z,75.25
2022-08-03T06:15:56.071Z,75.18
2022-08-03T06:16:55.917Z,73.98
2022-08-03T06:17:58.738Z,74.28
2022-08-03T06:18:57.949Z,74.38
2022-08-03T06:19:55.919Z,75.09
2022-08-03T06:20:56.287Z,75.38
2022-08-03T06:21:55.854Z,75.45
2022-08-03T06:23:00.455Z,75.45
2022-08-03T06:23:56.848Z,75.59
2022-08-03T06:24:55.910Z,75.45
2022-08-03T06:25:55.918Z,75.55
2022-08-03T06:26:55.885Z,74.71
2022-08-03T06:27:55.896Z,74.61
2022-08-03T06:28:55.882Z,74.81
2022-08-03T06:29:55.890Z,76.32
2022-08-03T06:30:55.875Z,74.48
2022-08-03T06:31:55.881Z,74.18
2022-08-03T06:32:55.877Z,72.94
2022-08-03T06:34:34.225Z,74.04
2022-08-03T06:34:56.820Z,73.03
2022-08-03T06:35:55.855Z,72.47
2022-08-03T06:37:01.662Z,71.86
2022-08-03T06:37:57.786Z,71.86
2022-08-03T06:38:55.855Z,72.03
2022-08-03T06:39:55.879Z,70.93
2022-08-03T06:40:55.842Z,70.96
2022-08-03T06:41:55.858Z,69.79
2022-08-03T06:42:55.858Z,69.99
2022-08-03T06:44:03.259Z,70.26
2022-08-03T06:44:56.747Z,69.86
2022-08-03T06:45:55.786Z,68.86
2022-08-03T06:46:55.902Z,69.32
2022-08-03T06:47:55.744Z,69.02
2022-08-03T06:48:55.886Z,68.09
2022-08-03T06:50:12.822Z,67.89
2022-08-03T06:50:56.672Z,67.69
2022-08-03T06:52:04.118Z,67.69
2022-08-03T06:52:56.703Z,67.69
2022-08-03T06:53:55.734Z,67.82
2022-08-03T06:54:55.734Z,67.99
2022-08-03T06:55:55.751Z,66.99
2022-08-03T06:56:55.772Z,66.79
2022-08-03T06:57:55.733Z,66.16
2022-08-03T06:58:55.687Z,67.66
2022-08-03T07:00:08.022Z,65.76
2022-08-03T07:00:56.724Z,66.16
2022-08-03T07:01:55.745Z,66.49
2022-08-03T07:02:58.245Z,66.69
2022-08-03T07:03:56.729Z,66.76
2022-08-03T07:04:55.636Z,65.66
2022-08-03T07:05:55.668Z,65.66
2022-08-03T07:06:55.636Z,66.39
2022-08-03T07:07:55.642Z,66.86
2022-08-03T07:08:59.400Z,66.03
2022-08-03T07:09:58.175Z,65.03
2022-08-03T07:10:55.583Z,65.40
2022-08-03T07:11:55.620Z,64.80
2022-08-03T07:12:56.586Z,64.67
2022-08-03T07:13:55.599Z,64.80
2022-08-03T07:14:59.978Z,65.23
2022-08-03T07:15:57.636Z,65.96
2022-08-03T07:16:55.548Z,65.16
2022-08-03T07:17:55.473Z,65.56
2022-08-03T07:18:55.440Z,65.66
2022-08-03T07:19:55.498Z,66.06
2022-08-03T07:20:55.460Z,66.03
2022-08-03T07:21:55.471Z,64.50
2022-08-03T07:22:56.453Z,64.33
2022-08-03T07:23:55.420Z,64.50
2022-08-03T07:24:55.422Z,63.50
2022-08-03T07:25:55.696Z,63.90
2022-08-03T07:26:55.412Z,64.20
2022-08-03T07:27:55.399Z,63.17
2022-08-03T07:28:55.391Z,62.48
2022-08-03T07:29:55.517Z,63.04
2022-08-03T07:30:55.406Z,61.71
2022-08-03T07:31:55.365Z,61.49
2022-08-03T07:32:55.364Z,60.99
2022-08-03T07:33:55.406Z,62.26
2022-08-03T07:35:00.160Z,61.13
2022-08-03T07:35:57.408Z,60.66
2022-08-03T07:36:55.366Z,59.89
2022-08-03T07:37:55.434Z,60.39
2022-08-03T07:38:55.556Z,59.89
2022-08-03T07:39:55.394Z,60.29
2022-08-03T07:40:55.394Z,59.96
2022-08-03T07:41:55.479Z,59.77
2022-08-03T07:42:55.372Z,59.96
2022-08-03T07:43:55.407Z,59.17
2022-08-03T07:44:55.383Z,59.53
2022-08-03T07:45:55.378Z,58.84
2022-08-03T07:46:55.444Z,59.01
2022-08-03T07:47:55.422Z,58.22
2022-08-03T07:48:55.428Z,58.09
2022-08-03T07:49:55.435Z,58.28
2022-08-03T07:50:55.409Z,57.96
2022-08-03T07:51:55.373Z,57.36
2022-08-03T07:52:55.329Z,56.27
2022-08-03T07:53:55.380Z,56.64
2022-08-03T07:54:55.369Z,55.94
2022-08-03T07:55:55.383Z,55.35
2022-08-03T07:56:55.309Z,55.65
2022-08-03T07:57:55.674Z,55.25
2022-08-03T07:58:55.293Z,55.65
2022-08-03T08:00:01.790Z,54.13
2022-08-03T08:00:56.337Z,53.91
2022-08-03T08:01:55.282Z,52.91
2022-08-03T08:02:55.229Z,51.32
2022-08-03T08:03:55.286Z,52.42
2022-08-03T08:04:55.451Z,51.20
2022-08-03T08:05:55.256Z,52.79
2022-08-03T08:06:55.238Z,51.30
2022-08-03T08:07:55.258Z,50.81
2022-08-03T08:08:55.220Z,49.39
2022-08-03T08:09:55.201Z,49.79
2022-08-03T08:10:56.897Z,50.06
2022-08-03T11:06:05.615Z,34.81
2022-08-03T11:07:06.862Z,34.93
2022-08-03T11:08:06.906Z,35.31
2022-08-03T11:09:06.895Z,34.11
2022-08-03T11:10:10.488Z,34.51
2022-08-03T11:11:07.905Z,34.21
2022-08-03T11:12:06.888Z,34.61
2022-08-03T11:13:06.801Z,35.88
2022-08-03T11:14:06.851Z,34.57
2022-08-03T11:15:06.985Z,36.33
2022-08-03T11:16:10.918Z,33.89
2022-08-03T11:17:14.084Z,34.16
2022-08-03T11:18:07.764Z,34.06
2022-08-03T11:19:06.766Z,34.77
2022-08-03T11:20:06.741Z,33.89
2022-08-03T11:21:06.789Z,34.00
2022-08-03T11:22:06.773Z,34.11
2022-08-03T11:23:06.725Z,34.59
2022-08-03T11:24:06.994Z,34.38
2022-08-03T11:25:07.769Z,34.06
2022-08-03T11:26:06.736Z,33.18
2022-08-03T11:27:06.731Z,33.82
2022-08-03T11:28:06.734Z,34.41
2022-08-03T11:29:06.714Z,33.80
2022-08-03T11:30:06.713Z,33.89
2022-08-03T11:31:06.758Z,33.79
2022-08-03T11:32:06.693Z,33.20
2022-08-03T11:33:06.779Z,34.26
2022-08-03T11:34:06.637Z,34.36
2022-08-03T11:35:06.713Z,34.26
2022-08-03T11:36:06.633Z,33.95
2022-08-03T11:37:06.640Z,34.14
2022-08-03T11:38:06.695Z,33.56
2022-08-03T11:39:06.607Z,34.13
2022-08-03T11:40:06.618Z,34.33
2022-08-03T11:41:06.581Z,32.76
2022-08-03T11:42:06.580Z,33.84
2022-08-03T11:43:06.612Z,32.76
2022-08-03T11:44:06.670Z,32.65
2022-08-03T11:45:06.562Z,32.75
2022-08-03T11:46:06.631Z,32.06
2022-08-03T11:47:06.571Z,31.96
2022-08-03T11:48:06.547Z,33.62
2022-08-03T11:49:10.403Z,32.07
2022-08-03T11:50:07.547Z,32.26
2022-08-03T11:51:06.523Z,33.04
2022-08-03T11:52:06.559Z,32.94
2022-08-03T11:53:06.527Z,31.68
2022-08-03T11:54:06.491Z,32.86
2022-08-03T11:55:06.478Z,32.87
2022-08-03T11:56:06.448Z,32.76
2022-08-03T11:57:07.423Z,33.74
2022-08-03T11:59:17.274Z,32.55
2022-08-03T11:59:19.974Z,32.63
2022-08-03T12:00:07.395Z,30.68
2022-08-03T12:01:06.403Z,32.81
2022-08-03T12:02:06.342Z,31.93
2022-08-03T12:03:06.438Z,32.14
2022-08-03T12:04:06.358Z,32.24
2022-08-03T12:05:06.373Z,32.53
2022-08-03T12:06:06.714Z,33.40
2022-08-03T12:07:06.347Z,31.16
2022-08-03T12:08:06.873Z,31.48
2022-08-03T12:09:07.425Z,31.68
2022-08-03T12:10:06.326Z,31.96
2022-08-03T12:11:06.441Z,31.77
2022-08-03T12:12:06.445Z,31.78
2022-08-03T12:14:32.970Z,33.25
2022-08-03T12:14:49.050Z,32.65
2022-08-03T12:15:07.300Z,33.14
2022-08-03T12:16:06.381Z,32.46
2022-08-03T12:17:06.456Z,32.66
2022-08-03T12:18:07.291Z,31.41
2022-08-03T12:19:06.379Z,32.20
2022-08-03T12:20:06.362Z,32.58
2022-08-03T12:21:06.414Z,31.80
2022-08-03T12:22:06.367Z,32.29
2022-08-03T12:23:06.329Z,31.68
2022-08-03T12:24:06.292Z,32.06
2022-08-03T12:25:06.356Z,33.70
2022-08-03T12:26:06.292Z,32.63
2022-08-03T12:27:06.319Z,30.18
2022-08-03T12:28:06.324Z,31.05
2022-08-03T12:29:07.187Z,30.96
2022-08-03T12:30:06.298Z,30.66
2022-08-03T12:31:06.258Z,31.74
2022-08-03T12:32:06.284Z,33.20
2022-08-03T12:33:06.317Z,33.79
2022-08-03T12:34:06.245Z,31.23
2022-08-03T12:35:06.254Z,31.02
2022-08-03T12:36:07.246Z,30.34
2022-08-03T12:37:21.897Z,31.79
2022-08-03T12:38:07.237Z,31.40
2022-08-03T12:39:06.243Z,30.90
2022-08-03T12:40:10.186Z,30.44
2022-08-03T12:41:08.224Z,30.54
2022-08-03T12:42:06.213Z,30.71
2022-08-03T12:43:06.198Z,30.31
2022-08-03T12:44:06.300Z,30.51
2022-08-03T12:45:06.166Z,30.63
2022-08-03T12:46:06.182Z,31.60
2022-08-03T12:47:06.171Z,31.22
2022-08-03T12:48:06.136Z,29.85
2022-08-03T12:49:06.252Z,30.74
2022-08-03T12:50:06.172Z,30.65
2022-08-03T12:51:06.120Z,29.95
2022-08-03T12:52:07.720Z,31.05
2022-08-03T12:53:09.038Z,32.13
2022-08-03T12:54:06.116Z,31.45
2022-08-03T12:55:06.174Z,33.98
2022-08-03T12:56:06.388Z,31.62
2022-08-03T12:57:05.978Z,31.33
2022-08-03T12:58:06.008Z,32.89
2022-08-03T12:59:05.977Z,31.23
2022-08-03T13:00:06.065Z,30.08
2022-08-03T13:01:09.526Z,31.07
2022-08-03T13:02:09.618Z,30.96
2022-08-03T13:03:38.226Z,32.01
2022-08-03T13:04:07.989Z,30.08
2022-08-03T13:05:05.945Z,29.86
2022-08-03T13:06:06.036Z,30.26
2022-08-03T13:07:06.532Z,30.24
2022-08-03T13:08:06.948Z,30.05
2022-08-03T13:09:05.903Z,30.83
2022-08-03T13:10:08.146Z,29.95
2022-08-03T13:11:07.005Z,30.54
2022-08-03T13:12:05.911Z,30.13
2022-08-03T13:13:05.913Z,31.56
2022-08-03T13:14:05.978Z,28.93
2022-08-03T13:15:05.988Z,28.83
2022-08-03T13:16:06.006Z,30.29
2022-08-03T13:17:05.978Z,29.13
2022-08-03T13:18:06.001Z,28.93
2022-08-03T13:19:05.951Z,29.69
2022-08-03T13:20:06.934Z,28.74
2022-08-03T13:21:06.032Z,29.04
2022-08-03T13:22:06.025Z,30.02
2022-08-03T13:23:06.051Z,30.29
2022-08-03T13:24:06.889Z,30.70
2022-08-03T13:25:05.955Z,29.74
2022-08-03T13:26:05.979Z,29.54
2022-08-03T13:28:02.149Z,29.54
2022-08-03T13:28:09.944Z,29.72
2022-08-03T13:29:07.956Z,29.43
2022-08-03T13:30:05.957Z,29.03
2022-08-03T13:31:05.981Z,29.22
2022-08-03T13:32:05.992Z,28.94
2022-08-03T13:33:06.065Z,30.98
2022-08-03T13:34:05.944Z,27.83
2022-08-03T13:35:06.013Z,28.51
2022-08-03T13:36:05.850Z,28.49
2022-08-03T13:37:09.444Z,28.85
2022-08-03T13:38:07.870Z,27.56
2022-08-03T13:39:05.870Z,27.26
2022-08-03T13:40:05.975Z,26.89
2022-08-03T13:41:05.854Z,27.57
2022-08-03T13:42:06.790Z,27.17
2022-08-03T13:43:05.912Z,27.07
2022-08-03T13:44:26.607Z,27.08
2022-08-03T13:45:07.839Z,27.29
2022-08-03T13:46:05.824Z,27.18
2022-08-03T13:47:05.850Z,26.46
2022-08-03T13:48:06.885Z,25.74
2022-08-03T13:49:05.731Z,25.93
2022-08-03T13:50:05.792Z,25.94
2022-08-03T13:51:21.682Z,25.76
2022-08-03T13:52:07.689Z,25.47
2022-08-03T13:53:05.749Z,25.83
2022-08-03T13:54:05.787Z,25.05
2022-08-03T13:55:05.821Z,24.76
2022-08-03T13:56:05.674Z,25.03
2022-08-03T13:58:07.557Z,25.19
2022-08-03T13:58:18.927Z,24.24
2022-08-03T13:59:06.731Z,22.85
2022-08-03T14:00:05.676Z,23.62
2022-08-03T14:01:05.765Z,23.03
2022-08-03T14:02:05.844Z,22.92
2022-08-03T14:03:14.512Z,22.62
2022-08-03T14:04:06.693Z,24.43
2022-08-03T14:05:06.650Z,22.22
2022-08-03T14:06:05.703Z,22.14
2022-08-03T14:07:05.751Z,22.79
2022-08-03T14:08:05.882Z,22.12
2022-08-03T14:09:05.602Z,22.01
2022-08-03T14:10:05.629Z,22.89
2022-08-03T14:11:05.670Z,22.02
2022-08-03T14:12:08.720Z,22.03
2022-08-03T14:13:05.686Z,22.02
2022-08-03T14:14:05.649Z,23.28
2022-08-03T14:15:05.962Z,22.03
2022-08-03T14:16:05.652Z,23.10
2022-08-03T14:17:05.699Z,22.52
2022-08-03T14:18:05.649Z,22.94
2022-08-03T14:19:05.617Z,23.15
2022-08-03T14:20:13.868Z,23.05
2022-08-03T14:21:07.420Z,23.93
2022-08-03T14:22:07.010Z,24.02
2022-08-03T14:23:05.635Z,23.92
2022-08-03T14:24:05.626Z,23.71
2022-08-03T14:25:05.590Z,23.54
2022-08-03T14:26:05.634Z,23.35
2022-08-03T14:27:09.338Z,23.35
2022-08-03T14:28:06.550Z,23.72
2022-08-03T14:29:05.691Z,24.02
2022-08-03T14:30:05.514Z,23.33
2022-08-03T14:31:08.223Z,22.36
2022-08-03T14:32:11.315Z,23.44
2022-08-03T14:33:06.552Z,22.44
2022-08-03T14:34:05.515Z,22.80
2022-08-03T14:35:06.593Z,21.96
2022-08-03T14:36:05.503Z,22.64
2022-08-03T14:37:05.576Z,22.74
2022-08-03T14:38:05.478Z,23.13
2022-08-03T14:39:05.511Z,22.71
2022-08-03T14:40:05.578Z,23.06
2022-08-03T14:41:05.463Z,23.09
2022-08-03T14:42:05.401Z,22.32
2022-08-03T14:43:05.389Z,22.32
2022-08-03T14:44:05.378Z,22.34
2022-08-03T14:45:09.328Z,22.24
2022-08-03T14:46:06.454Z,22.52
2022-08-03T14:47:05.522Z,21.48
2022-08-03T14:50:32.222Z,22.34
2022-08-03T14:50:33.340Z,22.46
2022-08-03T14:50:36.511Z,21.45
2022-08-03T14:51:06.333Z,21.84
2022-08-03T14:52:05.464Z,22.05
2022-08-03T14:53:05.471Z,22.14
2022-08-03T14:54:05.491Z,22.42
2022-08-03T14:55:05.412Z,22.44
2022-08-03T14:56:10.056Z,22.93
2022-08-03T14:57:07.586Z,22.45
2022-08-03T14:58:05.613Z,22.45
2022-08-03T14:59:06.364Z,22.84
2022-08-03T15:00:05.566Z,22.36
2022-08-03T15:02:04.973Z,23.14
2022-08-03T15:02:11.020Z,22.33
2022-08-03T15:03:06.560Z,21.64
2022-08-03T15:04:05.408Z,21.61
2022-08-03T15:05:05.451Z,20.92
2022-08-03T15:06:05.455Z,20.92
2022-08-03T15:07:05.345Z,21.92
2022-08-03T15:08:09.102Z,22.25
2022-08-03T15:09:21.484Z,23.00
2022-08-03T15:10:07.283Z,22.05
2022-08-03T15:11:05.290Z,22.05
2022-08-03T15:12:05.424Z,23.10
2022-08-03T15:13:05.291Z,24.52
2022-08-03T15:14:09.137Z,22.58
2022-08-03T15:15:06.341Z,21.48
2022-08-03T15:16:05.370Z,20.73
2022-08-03T15:17:05.298Z,21.62
2022-08-03T15:18:05.311Z,21.61
2022-08-03T15:20:01.365Z,21.15
2022-08-03T15:20:23.328Z,20.65
2022-08-03T15:21:07.239Z,20.85
2022-08-03T15:22:06.183Z,20.97
2022-08-03T15:23:05.219Z,22.00
2022-08-03T15:24:05.280Z,22.34
2022-08-03T15:26:29.292Z,20.88
2022-08-03T15:26:30.811Z,21.05
2022-08-03T15:27:06.553Z,19.32
2022-08-03T15:28:05.208Z,19.80
2022-08-03T15:29:05.340Z,19.59
2022-08-03T15:30:09.903Z,18.74
2022-08-03T15:31:06.184Z,20.92
2022-08-03T15:32:09.169Z,19.49
2022-08-03T15:33:06.382Z,18.54
2022-08-03T15:34:05.254Z,19.60
2022-08-03T15:35:05.278Z,19.53
2022-08-03T15:36:05.284Z,21.95
2022-08-03T15:37:05.247Z,20.06
2022-08-03T15:38:09.496Z,20.85
2022-08-03T15:39:06.361Z,22.88
2022-08-03T15:40:05.244Z,21.72
2022-08-03T15:41:05.223Z,22.22
2022-08-03T15:42:05.119Z,22.83
2022-08-03T15:43:05.176Z,22.76
2022-08-03T15:44:09.100Z,23.03
2022-08-03T15:45:06.171Z,22.81
2022-08-03T15:46:29.247Z,21.84
2022-08-03T15:47:07.134Z,21.75